sensor_id;sensor_type;location;lat;lon;timestamp;P1;durP1;ratioP1;P2;durP2;ratioP2
3231;SDS011;1628;48.884;9.210;2022-11-09T00:01:37;4.97;;;4.60;;
3231;SDS011;1628;48.884;9.210;2022-11-09T00:04:05;7.97;;;4.60;;
3231;SDS011;1628;48.884;9.210;2022-11-09T00:06:33;5.90;;;5.40;;
3231;SDS011;1628;48.884;9.210;2022-11-09T00:09:01;6.13;;;4.90;;
3231;SDS011;1628;48.884;9.210;2022-11-09T00:11:28;6.73;;;6.00;;
3231;SDS011;1628;48.884;9.210;2022-11-09T00:13:55;6.20;;;5.60;;
3231;SDS011;1628;48.884;9.210;2022-11-09T00:16:22;6.27;;;5.70;;
3231;SDS011;1628;48.884;9.210;2022-11-09T00:18:48;6.40;;;5.80;;
3231;SDS011;1628;48.884;9.210;2022-11-09T00:21:19;6.67;;;6.07;;
3231;SDS011;1628;48.884;9.210;2022-11-09T00:23:46;8.77;;;5.60;;
3231;SDS011;1628;48.884;9.210;2022-11-09T00:26:14;6.90;;;6.30;;
3231;SDS011;1628;48.884;9.210;2022-11-09T00:28:42;7.17;;;6.47;;
3231;SDS011;1628;48.884;9.210;2022-11-09T00:31:09;7.40;;;6.10;;
3231;SDS011;1628;48.884;9.210;2022-11-09T00:33:38;6.50;;;5.90;;
3231;SDS011;1628;48.884;9.210;2022-11-09T00:36:05;6.53;;;5.90;;
3231;SDS011;1628;48.884;9.210;2022-11-09T00:38:35;6.40;;;5.90;;
3231;SDS011;1628;48.884;9.210;2022-11-09T00:41:04;5.60;;;5.10;;
3231;SDS011;1628;48.884;9.210;2022-11-09T00:43:32;6.77;;;6.17;;
3231;SDS011;1628;48.884;9.210;2022-11-09T00:45:59;6.10;;;5.60;;
3231;SDS011;1628;48.884;9.210;2022-11-09T00:48:26;6.13;;;5.63;;
3231;SDS011;1628;48.884;9.210;2022-11-09T00:50:53;6.33;;;5.80;;
3231;SDS011;1628;48.884;9.210;2022-11-09T00:53:21;5.90;;;5.40;;
3231;SDS011;1628;48.884;9.210;2022-11-09T00:55:54;6.80;;;6.30;;
3231;SDS011;1628;48.884;9.210;2022-11-09T00:58:21;6.40;;;5.80;;
3231;SDS011;1628;48.884;9.210;2022-11-09T01:00:48;8.10;;;5.97;;
3231;SDS011;1628;48.884;9.210;2022-11-09T01:03:16;6.87;;;6.27;;
3231;SDS011;1628;48.884;9.210;2022-11-09T01:05:43;6.57;;;5.97;;
3231;SDS011;1628;48.884;9.210;2022-11-09T01:08:10;7.17;;;6.47;;
3231;SDS011;1628;48.884;9.210;2022-11-09T01:10:38;7.60;;;5.73;;
3231;SDS011;1628;48.884;9.210;2022-11-09T01:13:08;6.90;;;6.40;;
3231;SDS011;1628;48.884;9.210;2022-11-09T01:15:39;7.67;;;5.77;;
3231;SDS011;1628;48.884;9.210;2022-11-09T01:18:06;6.53;;;5.93;;
3231;SDS011;1628;48.884;9.210;2022-11-09T01:20:33;7.43;;;6.33;;
3231;SDS011;1628;48.884;9.210;2022-11-09T01:23:03;7.37;;;6.47;;
3231;SDS011;1628;48.884;9.210;2022-11-09T01:25:29;6.40;;;5.80;;
3231;SDS011;1628;48.884;9.210;2022-11-09T01:27:57;9.17;;;8.27;;
3231;SDS011;1628;48.884;9.210;2022-11-09T01:30:25;7.10;;;6.40;;
3231;SDS011;1628;48.884;9.210;2022-11-09T01:32:52;7.23;;;6.63;;
3231;SDS011;1628;48.884;9.210;2022-11-09T01:35:18;7.03;;;6.33;;
3231;SDS011;1628;48.884;9.210;2022-11-09T01:37:45;8.43;;;6.80;;
3231;SDS011;1628;48.884;9.210;2022-11-09T01:40:12;7.57;;;6.90;;
3231;SDS011;1628;48.884;9.210;2022-11-09T01:42:39;8.30;;;7.40;;
3231;SDS011;1628;48.884;9.210;2022-11-09T01:45:20;9.27;;;7.10;;
3231;SDS011;1628;48.884;9.210;2022-11-09T01:47:51;9.70;;;7.53;;
3231;SDS011;1628;48.884;9.210;2022-11-09T01:50:25;7.57;;;6.87;;
3231;SDS011;1628;48.884;9.210;2022-11-09T01:52:56;7.93;;;7.23;;
3231;SDS011;1628;48.884;9.210;2022-11-09T01:55:25;7.80;;;7.10;;
3231;SDS011;1628;48.884;9.210;2022-11-09T01:57:52;8.27;;;7.43;;
3231;SDS011;1628;48.884;9.210;2022-11-09T02:00:21;7.13;;;6.43;;
3231;SDS011;1628;48.884;9.210;2022-11-09T02:02:49;8.33;;;6.90;;
3231;SDS011;1628;48.884;9.210;2022-11-09T02:05:21;7.80;;;6.53;;
3231;SDS011;1628;48.884;9.210;2022-11-09T02:07:50;7.87;;;7.07;;
3231;SDS011;1628;48.884;9.210;2022-11-09T02:10:19;7.87;;;7.03;;
3231;SDS011;1628;48.884;9.210;2022-11-09T02:12:50;7.60;;;6.70;;
3231;SDS011;1628;48.884;9.210;2022-11-09T02:15:18;6.67;;;5.63;;
3231;SDS011;1628;48.884;9.210;2022-11-09T02:17:47;7.47;;;6.77;;
3231;SDS011;1628;48.884;9.210;2022-11-09T02:20:18;6.17;;;5.57;;
3231;SDS011;1628;48.884;9.210;2022-11-09T02:22:45;6.40;;;5.80;;
3231;SDS011;1628;48.884;9.210;2022-11-09T02:25:12;6.67;;;5.97;;
3231;SDS011;1628;48.884;9.210;2022-11-09T02:27:40;6.80;;;6.00;;
3231;SDS011;1628;48.884;9.210;2022-11-09T02:30:09;6.47;;;5.83;;
3231;SDS011;1628;48.884;9.210;2022-11-09T02:32:37;5.43;;;5.03;;
3231;SDS011;1628;48.884;9.210;2022-11-09T02:35:04;5.83;;;4.80;;
3231;SDS011;1628;48.884;9.210;2022-11-09T02:37:37;4.97;;;4.57;;
3231;SDS011;1628;48.884;9.210;2022-11-09T02:40:08;4.80;;;4.50;;
3231;SDS011;1628;48.884;9.210;2022-11-09T02:42:39;4.40;;;4.00;;
3231;SDS011;1628;48.884;9.210;2022-11-09T02:45:06;5.63;;;4.40;;
3231;SDS011;1628;48.884;9.210;2022-11-09T02:47:33;4.20;;;3.90;;
3231;SDS011;1628;48.884;9.210;2022-11-09T02:50:00;6.33;;;4.23;;
3231;SDS011;1628;48.884;9.210;2022-11-09T02:52:27;4.80;;;3.90;;
3231;SDS011;1628;48.884;9.210;2022-11-09T02:54:55;4.73;;;4.33;;
3231;SDS011;1628;48.884;9.210;2022-11-09T02:57:21;3.80;;;3.50;;
3231;SDS011;1628;48.884;9.210;2022-11-09T02:59:48;4.20;;;3.80;;
3231;SDS011;1628;48.884;9.210;2022-11-09T03:02:15;4.57;;;3.97;;
3231;SDS011;1628;48.884;9.210;2022-11-09T03:04:41;3.83;;;3.53;;
3231;SDS011;1628;48.884;9.210;2022-11-09T03:07:08;4.13;;;3.73;;
3231;SDS011;1628;48.884;9.210;2022-11-09T03:09:35;3.60;;;3.30;;
3231;SDS011;1628;48.884;9.210;2022-11-09T03:12:03;4.50;;;3.73;;
3231;SDS011;1628;48.884;9.210;2022-11-09T03:14:50;4.10;;;3.83;;
3231;SDS011;1628;48.884;9.210;2022-11-09T03:17:16;4.40;;;4.10;;
3231;SDS011;1628;48.884;9.210;2022-11-09T03:19:43;3.67;;;3.40;;
3231;SDS011;1628;48.884;9.210;2022-11-09T03:22:10;5.47;;;4.57;;
3231;SDS011;1628;48.884;9.210;2022-11-09T03:24:36;4.47;;;4.17;;
3231;SDS011;1628;48.884;9.210;2022-11-09T03:27:04;5.43;;;4.93;;
3231;SDS011;1628;48.884;9.210;2022-11-09T03:29:31;5.10;;;4.53;;
3231;SDS011;1628;48.884;9.210;2022-11-09T03:31:58;5.00;;;4.53;;
3231;SDS011;1628;48.884;9.210;2022-11-09T03:34:25;5.33;;;4.50;;
3231;SDS011;1628;48.884;9.210;2022-11-09T03:36:51;4.77;;;4.30;;
3231;SDS011;1628;48.884;9.210;2022-11-09T03:39:18;9.27;;;4.97;;
3231;SDS011;1628;48.884;9.210;2022-11-09T03:41:44;4.70;;;4.30;;
3231;SDS011;1628;48.884;9.210;2022-11-09T03:44:12;4.70;;;4.40;;
3231;SDS011;1628;48.884;9.210;2022-11-09T03:46:39;6.63;;;5.10;;
3231;SDS011;1628;48.884;9.210;2022-11-09T03:49:06;5.03;;;4.63;;
3231;SDS011;1628;48.884;9.210;2022-11-09T03:51:32;5.77;;;5.20;;
3231;SDS011;1628;48.884;9.210;2022-11-09T03:53:59;5.63;;;5.17;;
3231;SDS011;1628;48.884;9.210;2022-11-09T03:56:26;5.57;;;4.73;;
3231;SDS011;1628;48.884;9.210;2022-11-09T03:58:52;5.80;;;5.40;;
3231;SDS011;1628;48.884;9.210;2022-11-09T04:01:21;5.70;;;5.30;;
3231;SDS011;1628;48.884;9.210;2022-11-09T04:03:47;5.97;;;5.50;;
3231;SDS011;1628;48.884;9.210;2022-11-09T04:06:14;5.70;;;5.23;;
3231;SDS011;1628;48.884;9.210;2022-11-09T04:08:41;6.70;;;6.10;;
3231;SDS011;1628;48.884;9.210;2022-11-09T04:11:07;6.93;;;5.90;;
3231;SDS011;1628;48.884;9.210;2022-11-09T04:13:35;6.43;;;5.93;;
3231;SDS011;1628;48.884;9.210;2022-11-09T04:16:02;7.30;;;6.60;;
3231;SDS011;1628;48.884;9.210;2022-11-09T04:18:30;7.37;;;6.53;;
3231;SDS011;1628;48.884;9.210;2022-11-09T04:20:57;7.73;;;7.07;;
3231;SDS011;1628;48.884;9.210;2022-11-09T04:23:24;8.23;;;7.40;;
3231;SDS011;1628;48.884;9.210;2022-11-09T04:25:50;8.20;;;7.57;;
3231;SDS011;1628;48.884;9.210;2022-11-09T04:28:17;8.30;;;7.60;;
3231;SDS011;1628;48.884;9.210;2022-11-09T04:30:44;8.70;;;7.60;;
3231;SDS011;1628;48.884;9.210;2022-11-09T04:33:11;8.47;;;7.67;;
3231;SDS011;1628;48.884;9.210;2022-11-09T04:35:39;9.10;;;8.20;;
3231;SDS011;1628;48.884;9.210;2022-11-09T04:38:06;10.03;;;9.13;;
3231;SDS011;1628;48.884;9.210;2022-11-09T04:40:36;9.27;;;8.40;;
3231;SDS011;1628;48.884;9.210;2022-11-09T04:43:03;10.90;;;9.67;;
3231;SDS011;1628;48.884;9.210;2022-11-09T04:45:32;12.50;;;9.90;;
3231;SDS011;1628;48.884;9.210;2022-11-09T04:48:00;11.17;;;10.07;;
3231;SDS011;1628;48.884;9.210;2022-11-09T04:50:28;11.00;;;10.07;;
3231;SDS011;1628;48.884;9.210;2022-11-09T04:52:56;11.60;;;10.43;;
3231;SDS011;1628;48.884;9.210;2022-11-09T04:55:33;11.87;;;10.90;;
3231;SDS011;1628;48.884;9.210;2022-11-09T04:57:59;12.73;;;11.37;;
3231;SDS011;1628;48.884;9.210;2022-11-09T05:00:26;12.87;;;11.57;;
3231;SDS011;1628;48.884;9.210;2022-11-09T05:02:53;18.93;;;12.63;;
3231;SDS011;1628;48.884;9.210;2022-11-09T05:05:19;12.50;;;11.30;;
3231;SDS011;1628;48.884;9.210;2022-11-09T05:07:46;13.07;;;11.83;;
3231;SDS011;1628;48.884;9.210;2022-11-09T05:10:14;13.37;;;12.27;;
3231;SDS011;1628;48.884;9.210;2022-11-09T05:12:41;14.07;;;12.73;;
3231;SDS011;1628;48.884;9.210;2022-11-09T05:15:08;13.60;;;12.40;;
3231;SDS011;1628;48.884;9.210;2022-11-09T05:17:35;14.70;;;13.30;;
3231;SDS011;1628;48.884;9.210;2022-11-09T05:20:02;12.70;;;11.70;;
3231;SDS011;1628;48.884;9.210;2022-11-09T05:22:29;13.47;;;12.27;;
3231;SDS011;1628;48.884;9.210;2022-11-09T05:25:14;13.63;;;12.53;;
3231;SDS011;1628;48.884;9.210;2022-11-09T05:27:41;12.27;;;11.30;;
3231;SDS011;1628;48.884;9.210;2022-11-09T05:30:08;12.90;;;11.80;;
3231;SDS011;1628;48.884;9.210;2022-11-09T05:32:37;13.67;;;12.43;;
3231;SDS011;1628;48.884;9.210;2022-11-09T05:35:04;14.67;;;13.27;;
3231;SDS011;1628;48.884;9.210;2022-11-09T05:37:31;14.57;;;13.27;;
3231;SDS011;1628;48.884;9.210;2022-11-09T05:39:58;13.33;;;12.33;;
3231;SDS011;1628;48.884;9.210;2022-11-09T05:42:26;14.43;;;13.23;;
3231;SDS011;1628;48.884;9.210;2022-11-09T05:44:53;14.33;;;13.07;;
3231;SDS011;1628;48.884;9.210;2022-11-09T05:47:20;14.47;;;13.27;;
3231;SDS011;1628;48.884;9.210;2022-11-09T05:49:46;14.97;;;13.70;;
3231;SDS011;1628;48.884;9.210;2022-11-09T05:52:13;15.30;;;14.00;;
3231;SDS011;1628;48.884;9.210;2022-11-09T05:54:40;15.87;;;14.33;;
3231;SDS011;1628;48.884;9.210;2022-11-09T05:57:06;14.43;;;13.30;;
3231;SDS011;1628;48.884;9.210;2022-11-09T05:59:34;13.73;;;12.63;;
3231;SDS011;1628;48.884;9.210;2022-11-09T06:02:01;14.30;;;13.00;;
3231;SDS011;1628;48.884;9.210;2022-11-09T06:04:28;13.83;;;12.53;;
3231;SDS011;1628;48.884;9.210;2022-11-09T06:06:54;13.30;;;12.20;;
3231;SDS011;1628;48.884;9.210;2022-11-09T06:09:21;13.10;;;12.00;;
3231;SDS011;1628;48.884;9.210;2022-11-09T06:11:48;14.13;;;12.70;;
3231;SDS011;1628;48.884;9.210;2022-11-09T06:14:15;13.87;;;12.67;;
3231;SDS011;1628;48.884;9.210;2022-11-09T06:16:43;13.50;;;12.10;;
3231;SDS011;1628;48.884;9.210;2022-11-09T06:19:10;13.80;;;12.60;;
3231;SDS011;1628;48.884;9.210;2022-11-09T06:21:36;14.47;;;11.47;;
3231;SDS011;1628;48.884;9.210;2022-11-09T06:24:03;13.07;;;11.97;;
3231;SDS011;1628;48.884;9.210;2022-11-09T06:26:30;13.17;;;11.87;;
3231;SDS011;1628;48.884;9.210;2022-11-09T06:28:56;12.60;;;11.50;;
3231;SDS011;1628;48.884;9.210;2022-11-09T06:31:23;13.70;;;12.40;;
3231;SDS011;1628;48.884;9.210;2022-11-09T06:33:51;13.63;;;12.43;;
3231;SDS011;1628;48.884;9.210;2022-11-09T06:36:18;13.20;;;12.07;;
3231;SDS011;1628;48.884;9.210;2022-11-09T06:38:47;14.10;;;13.00;;
3231;SDS011;1628;48.884;9.210;2022-11-09T06:41:14;14.93;;;13.40;;
3231;SDS011;1628;48.884;9.210;2022-11-09T06:43:41;14.90;;;13.40;;
3231;SDS011;1628;48.884;9.210;2022-11-09T06:46:08;14.00;;;12.90;;
3231;SDS011;1628;48.884;9.210;2022-11-09T06:48:36;13.60;;;12.30;;
3231;SDS011;1628;48.884;9.210;2022-11-09T06:51:04;14.03;;;12.87;;
3231;SDS011;1628;48.884;9.210;2022-11-09T06:53:32;13.40;;;12.30;;
3231;SDS011;1628;48.884;9.210;2022-11-09T06:55:59;17.43;;;12.57;;
3231;SDS011;1628;48.884;9.210;2022-11-09T06:58:27;13.10;;;12.00;;
3231;SDS011;1628;48.884;9.210;2022-11-09T07:00:54;14.90;;;13.40;;
3231;SDS011;1628;48.884;9.210;2022-11-09T07:03:21;13.90;;;12.77;;
3231;SDS011;1628;48.884;9.210;2022-11-09T07:05:49;13.43;;;12.00;;
3231;SDS011;1628;48.884;9.210;2022-11-09T07:08:18;14.90;;;12.27;;
3231;SDS011;1628;48.884;9.210;2022-11-09T07:10:45;12.50;;;11.20;;
3231;SDS011;1628;48.884;9.210;2022-11-09T07:13:12;12.93;;;11.80;;
3231;SDS011;1628;48.884;9.210;2022-11-09T07:15:38;13.77;;;12.67;;
3231;SDS011;1628;48.884;9.210;2022-11-09T07:18:06;12.93;;;11.83;;
3231;SDS011;1628;48.884;9.210;2022-11-09T07:20:35;12.23;;;11.17;;
3231;SDS011;1628;48.884;9.210;2022-11-09T07:23:02;10.90;;;10.07;;
3231;SDS011;1628;48.884;9.210;2022-11-09T07:25:30;9.70;;;8.90;;
3231;SDS011;1628;48.884;9.210;2022-11-09T07:28:00;12.03;;;9.57;;
3231;SDS011;1628;48.884;9.210;2022-11-09T07:30:28;10.23;;;9.20;;
3231;SDS011;1628;48.884;9.210;2022-11-09T07:32:55;9.63;;;8.90;;
3231;SDS011;1628;48.884;9.210;2022-11-09T07:35:23;10.53;;;9.73;;
3231;SDS011;1628;48.884;9.210;2022-11-09T07:37:50;11.50;;;10.43;;
3231;SDS011;1628;48.884;9.210;2022-11-09T07:40:17;11.70;;;10.80;;
3231;SDS011;1628;48.884;9.210;2022-11-09T07:42:45;11.60;;;10.53;;
3231;SDS011;1628;48.884;9.210;2022-11-09T07:45:12;11.43;;;10.33;;
3231;SDS011;1628;48.884;9.210;2022-11-09T07:47:39;15.13;;;11.20;;
3231;SDS011;1628;48.884;9.210;2022-11-09T07:50:05;12.17;;;11.17;;
3231;SDS011;1628;48.884;9.210;2022-11-09T07:52:32;13.23;;;11.93;;
3231;SDS011;1628;48.884;9.210;2022-11-09T07:54:59;12.30;;;11.30;;
3231;SDS011;1628;48.884;9.210;2022-11-09T07:57:25;13.20;;;11.90;;
3231;SDS011;1628;48.884;9.210;2022-11-09T07:59:53;12.57;;;11.57;;
3231;SDS011;1628;48.884;9.210;2022-11-09T08:02:20;13.20;;;12.10;;
3231;SDS011;1628;48.884;9.210;2022-11-09T08:04:47;13.40;;;12.17;;
3231;SDS011;1628;48.884;9.210;2022-11-09T08:07:14;13.47;;;12.27;;
3231;SDS011;1628;48.884;9.210;2022-11-09T08:09:40;14.20;;;12.60;;
3231;SDS011;1628;48.884;9.210;2022-11-09T08:12:07;14.30;;;12.80;;
3231;SDS011;1628;48.884;9.210;2022-11-09T08:14:34;13.70;;;12.43;;
3231;SDS011;1628;48.884;9.210;2022-11-09T08:17:02;13.00;;;11.80;;
3231;SDS011;1628;48.884;9.210;2022-11-09T08:19:28;13.27;;;12.03;;
3231;SDS011;1628;48.884;9.210;2022-11-09T08:21:55;14.07;;;12.83;;
3231;SDS011;1628;48.884;9.210;2022-11-09T08:24:22;14.30;;;13.10;;
3231;SDS011;1628;48.884;9.210;2022-11-09T08:26:48;13.10;;;11.90;;
3231;SDS011;1628;48.884;9.210;2022-11-09T08:29:15;14.43;;;13.00;;
3231;SDS011;1628;48.884;9.210;2022-11-09T08:31:42;14.70;;;13.53;;
3231;SDS011;1628;48.884;9.210;2022-11-09T08:34:10;16.60;;;14.97;;
3231;SDS011;1628;48.884;9.210;2022-11-09T08:36:40;17.80;;;16.13;;
3231;SDS011;1628;48.884;9.210;2022-11-09T08:39:06;17.53;;;15.93;;
3231;SDS011;1628;48.884;9.210;2022-11-09T08:41:34;17.53;;;16.03;;
3231;SDS011;1628;48.884;9.210;2022-11-09T08:44:00;16.10;;;14.60;;
3231;SDS011;1628;48.884;9.210;2022-11-09T08:46:27;24.03;;;17.37;;
3231;SDS011;1628;48.884;9.210;2022-11-09T08:48:54;16.53;;;14.93;;
3231;SDS011;1628;48.884;9.210;2022-11-09T08:51:22;19.00;;;16.93;;
3231;SDS011;1628;48.884;9.210;2022-11-09T08:53:49;16.73;;;15.43;;
3231;SDS011;1628;48.884;9.210;2022-11-09T08:56:16;18.57;;;16.73;;
3231;SDS011;1628;48.884;9.210;2022-11-09T08:58:43;16.00;;;14.57;;
3231;SDS011;1628;48.884;9.210;2022-11-09T09:01:10;16.90;;;15.50;;
3231;SDS011;1628;48.884;9.210;2022-11-09T09:03:37;17.10;;;14.30;;
3231;SDS011;1628;48.884;9.210;2022-11-09T09:06:04;14.00;;;12.80;;
3231;SDS011;1628;48.884;9.210;2022-11-09T09:08:33;14.63;;;12.97;;
3231;SDS011;1628;48.884;9.210;2022-11-09T09:11:00;14.87;;;12.67;;
3231;SDS011;1628;48.884;9.210;2022-11-09T09:13:27;14.03;;;12.70;;
3231;SDS011;1628;48.884;9.210;2022-11-09T09:15:54;12.50;;;11.50;;
3231;SDS011;1628;48.884;9.210;2022-11-09T09:18:20;13.67;;;12.33;;
3231;SDS011;1628;48.884;9.210;2022-11-09T09:20:47;13.00;;;11.70;;
3231;SDS011;1628;48.884;9.210;2022-11-09T09:23:14;12.70;;;11.50;;
3231;SDS011;1628;48.884;9.210;2022-11-09T09:25:42;11.70;;;10.63;;
3231;SDS011;1628;48.884;9.210;2022-11-09T09:28:09;11.03;;;10.23;;
3231;SDS011;1628;48.884;9.210;2022-11-09T09:30:35;12.63;;;10.90;;
3231;SDS011;1628;48.884;9.210;2022-11-09T09:33:02;11.17;;;10.10;;
3231;SDS011;1628;48.884;9.210;2022-11-09T09:35:29;9.80;;;9.00;;
3231;SDS011;1628;48.884;9.210;2022-11-09T09:37:56;12.50;;;10.50;;
3231;SDS011;1628;48.884;9.210;2022-11-09T09:40:23;8.30;;;7.60;;
3231;SDS011;1628;48.884;9.210;2022-11-09T09:42:56;8.33;;;7.57;;
3231;SDS011;1628;48.884;9.210;2022-11-09T09:45:23;7.43;;;6.73;;
3231;SDS011;1628;48.884;9.210;2022-11-09T09:47:56;7.43;;;6.10;;
3231;SDS011;1628;48.884;9.210;2022-11-09T09:50:28;6.60;;;6.00;;
3231;SDS011;1628;48.884;9.210;2022-11-09T09:53:14;7.27;;;6.57;;
3231;SDS011;1628;48.884;9.210;2022-11-09T09:55:48;7.00;;;6.10;;
3231;SDS011;1628;48.884;9.210;2022-11-09T09:58:22;7.07;;;6.43;;
3231;SDS011;1628;48.884;9.210;2022-11-09T10:00:50;6.57;;;5.87;;
3231;SDS011;1628;48.884;9.210;2022-11-09T10:03:21;6.33;;;5.80;;
3231;SDS011;1628;48.884;9.210;2022-11-09T10:05:59;6.20;;;5.60;;
3231;SDS011;1628;48.884;9.210;2022-11-09T10:08:35;7.07;;;5.87;;
3231;SDS011;1628;48.884;9.210;2022-11-09T10:11:14;6.37;;;5.73;;
3231;SDS011;1628;48.884;9.210;2022-11-09T10:16:47;6.67;;;5.20;;
3231;SDS011;1628;48.884;9.210;2022-11-09T10:19:27;5.53;;;5.00;;
3231;SDS011;1628;48.884;9.210;2022-11-09T10:22:04;6.20;;;5.60;;
3231;SDS011;1628;48.884;9.210;2022-11-09T10:24:39;5.13;;;4.73;;
3231;SDS011;1628;48.884;9.210;2022-11-09T10:27:20;5.50;;;5.00;;
3231;SDS011;1628;48.884;9.210;2022-11-09T10:29:52;5.47;;;4.60;;
3231;SDS011;1628;48.884;9.210;2022-11-09T10:32:20;5.10;;;4.70;;
3231;SDS011;1628;48.884;9.210;2022-11-09T10:34:54;4.33;;;4.03;;
3231;SDS011;1628;48.884;9.210;2022-11-09T10:37:27;4.23;;;3.90;;
3231;SDS011;1628;48.884;9.210;2022-11-09T10:39:59;4.23;;;3.57;;
3231;SDS011;1628;48.884;9.210;2022-11-09T10:42:30;8.47;;;4.23;;
3231;SDS011;1628;48.884;9.210;2022-11-09T10:44:58;4.20;;;3.90;;
3231;SDS011;1628;48.884;9.210;2022-11-09T10:47:32;4.60;;;4.20;;
3231;SDS011;1628;48.884;9.210;2022-11-09T10:50:16;5.97;;;4.90;;
3231;SDS011;1628;48.884;9.210;2022-11-09T10:52:49;4.50;;;4.20;;
3231;SDS011;1628;48.884;9.210;2022-11-09T10:55:21;4.30;;;3.90;;
3231;SDS011;1628;48.884;9.210;2022-11-09T10:57:50;3.90;;;3.50;;
3231;SDS011;1628;48.884;9.210;2022-11-09T11:00:22;5.90;;;4.07;;
3231;SDS011;1628;48.884;9.210;2022-11-09T11:02:49;4.07;;;3.70;;
3231;SDS011;1628;48.884;9.210;2022-11-09T11:05:27;4.37;;;3.97;;
3231;SDS011;1628;48.884;9.210;2022-11-09T11:08:09;4.80;;;3.70;;
3231;SDS011;1628;48.884;9.210;2022-11-09T11:10:45;4.40;;;4.10;;
3231;SDS011;1628;48.884;9.210;2022-11-09T11:13:18;4.10;;;3.80;;
3231;SDS011;1628;48.884;9.210;2022-11-09T11:15:49;3.97;;;3.70;;
3231;SDS011;1628;48.884;9.210;2022-11-09T11:18:17;4.40;;;3.63;;
3231;SDS011;1628;48.884;9.210;2022-11-09T11:20:47;3.77;;;3.57;;
3231;SDS011;1628;48.884;9.210;2022-11-09T11:23:15;3.90;;;3.47;;
3231;SDS011;1628;48.884;9.210;2022-11-09T11:25:57;3.87;;;3.57;;
3231;SDS011;1628;48.884;9.210;2022-11-09T11:28:31;4.50;;;3.80;;
3231;SDS011;1628;48.884;9.210;2022-11-09T11:31:06;3.73;;;3.43;;
3231;SDS011;1628;48.884;9.210;2022-11-09T11:33:37;4.70;;;3.83;;
3231;SDS011;1628;48.884;9.210;2022-11-09T11:36:05;7.30;;;3.47;;
3231;SDS011;1628;48.884;9.210;2022-11-09T11:38:42;4.70;;;3.57;;
3231;SDS011;1628;48.884;9.210;2022-11-09T11:41:23;4.20;;;3.13;;
3231;SDS011;1628;48.884;9.210;2022-11-09T11:44:11;3.33;;;3.13;;
3231;SDS011;1628;48.884;9.210;2022-11-09T11:49:43;3.53;;;3.33;;
3231;SDS011;1628;48.884;9.210;2022-11-09T11:52:31;3.30;;;3.10;;
3231;SDS011;1628;48.884;9.210;2022-11-09T11:55:16;4.43;;;3.47;;
3231;SDS011;1628;48.884;9.210;2022-11-09T11:58:13;3.80;;;3.50;;
3231;SDS011;1628;48.884;9.210;2022-11-09T12:00:50;3.17;;;2.97;;
3231;SDS011;1628;48.884;9.210;2022-11-09T12:06:17;3.67;;;3.37;;
3231;SDS011;1628;48.884;9.210;2022-11-09T12:08:54;3.63;;;3.43;;
3231;SDS011;1628;48.884;9.210;2022-11-09T12:11:34;4.73;;;4.30;;
3231;SDS011;1628;48.884;9.210;2022-11-09T12:14:14;4.53;;;4.10;;
3231;SDS011;1628;48.884;9.210;2022-11-09T12:16:48;4.60;;;3.50;;
3231;SDS011;1628;48.884;9.210;2022-11-09T12:19:41;3.63;;;3.33;;
3231;SDS011;1628;48.884;9.210;2022-11-09T12:22:31;4.63;;;3.90;;
3231;SDS011;1628;48.884;9.210;2022-11-09T12:25:08;4.33;;;3.80;;
3231;SDS011;1628;48.884;9.210;2022-11-09T12:27:43;5.63;;;3.50;;
3231;SDS011;1628;48.884;9.210;2022-11-09T12:30:16;3.60;;;3.30;;
3231;SDS011;1628;48.884;9.210;2022-11-09T12:32:48;4.47;;;3.80;;
3231;SDS011;1628;48.884;9.210;2022-11-09T12:35:21;4.23;;;3.40;;
3231;SDS011;1628;48.884;9.210;2022-11-09T12:37:55;4.27;;;3.90;;
3231;SDS011;1628;48.884;9.210;2022-11-09T12:40:25;4.30;;;3.90;;
3231;SDS011;1628;48.884;9.210;2022-11-09T12:42:57;4.20;;;3.90;;
3231;SDS011;1628;48.884;9.210;2022-11-09T12:45:28;4.83;;;4.43;;
3231;SDS011;1628;48.884;9.210;2022-11-09T12:47:57;5.20;;;3.80;;
3231;SDS011;1628;48.884;9.210;2022-11-09T12:50:30;7.10;;;3.90;;
3231;SDS011;1628;48.884;9.210;2022-11-09T12:52:58;4.10;;;3.80;;
3231;SDS011;1628;48.884;9.210;2022-11-09T12:55:30;5.40;;;3.70;;
3231;SDS011;1628;48.884;9.210;2022-11-09T12:58:02;5.60;;;4.00;;
3231;SDS011;1628;48.884;9.210;2022-11-09T13:00:45;4.40;;;4.00;;
3231;SDS011;1628;48.884;9.210;2022-11-09T13:03:17;3.77;;;3.50;;
3231;SDS011;1628;48.884;9.210;2022-11-09T13:05:48;8.10;;;3.67;;
3231;SDS011;1628;48.884;9.210;2022-11-09T13:08:35;4.17;;;3.77;;
3231;SDS011;1628;48.884;9.210;2022-11-09T13:11:08;4.03;;;3.80;;
3231;SDS011;1628;48.884;9.210;2022-11-09T13:13:43;3.70;;;3.37;;
3231;SDS011;1628;48.884;9.210;2022-11-09T13:16:11;5.20;;;3.60;;
3231;SDS011;1628;48.884;9.210;2022-11-09T13:18:57;4.27;;;3.87;;
3231;SDS011;1628;48.884;9.210;2022-11-09T13:21:32;8.53;;;3.70;;
3231;SDS011;1628;48.884;9.210;2022-11-09T13:27:34;3.47;;;3.27;;
3231;SDS011;1628;48.884;9.210;2022-11-09T13:33:16;4.23;;;3.77;;
3231;SDS011;1628;48.884;9.210;2022-11-09T13:35:55;3.43;;;3.13;;
3231;SDS011;1628;48.884;9.210;2022-11-09T13:38:39;3.50;;;3.20;;
3231;SDS011;1628;48.884;9.210;2022-11-09T13:44:13;4.00;;;3.60;;
3231;SDS011;1628;48.884;9.210;2022-11-09T13:46:44;4.33;;;3.93;;
3231;SDS011;1628;48.884;9.210;2022-11-09T13:55:17;4.10;;;3.50;;
3231;SDS011;1628;48.884;9.210;2022-11-09T13:57:54;4.30;;;4.00;;
3231;SDS011;1628;48.884;9.210;2022-11-09T14:00:24;4.27;;;3.43;;
3231;SDS011;1628;48.884;9.210;2022-11-09T14:02:56;3.80;;;3.50;;
3231;SDS011;1628;48.884;9.210;2022-11-09T14:05:27;3.30;;;3.10;;
3231;SDS011;1628;48.884;9.210;2022-11-09T14:07:57;4.43;;;3.47;;
3231;SDS011;1628;48.884;9.210;2022-11-09T14:10:43;3.93;;;3.63;;
3231;SDS011;1628;48.884;9.210;2022-11-09T14:13:19;3.60;;;3.30;;
3231;SDS011;1628;48.884;9.210;2022-11-09T14:16:04;4.37;;;3.97;;
3231;SDS011;1628;48.884;9.210;2022-11-09T14:18:40;3.83;;;3.53;;
3231;SDS011;1628;48.884;9.210;2022-11-09T14:21:16;4.50;;;4.20;;
3231;SDS011;1628;48.884;9.210;2022-11-09T14:23:52;4.70;;;4.20;;
3231;SDS011;1628;48.884;9.210;2022-11-09T14:26:21;4.40;;;4.00;;
3231;SDS011;1628;48.884;9.210;2022-11-09T14:28:50;5.87;;;5.37;;
3231;SDS011;1628;48.884;9.210;2022-11-09T14:31:20;6.60;;;4.93;;
3231;SDS011;1628;48.884;9.210;2022-11-09T14:33:56;4.50;;;4.20;;
3231;SDS011;1628;48.884;9.210;2022-11-09T14:36:24;6.27;;;4.50;;
3231;SDS011;1628;48.884;9.210;2022-11-09T14:38:52;5.17;;;4.67;;
3231;SDS011;1628;48.884;9.210;2022-11-09T14:41:23;6.63;;;4.93;;
3231;SDS011;1628;48.884;9.210;2022-11-09T14:43:51;5.13;;;4.83;;
3231;SDS011;1628;48.884;9.210;2022-11-09T14:46:21;5.70;;;5.30;;
3231;SDS011;1628;48.884;9.210;2022-11-09T14:48:49;6.03;;;5.50;;
3231;SDS011;1628;48.884;9.210;2022-11-09T14:51:17;6.77;;;6.30;;
3231;SDS011;1628;48.884;9.210;2022-11-09T14:53:46;6.53;;;5.90;;
3231;SDS011;1628;48.884;9.210;2022-11-09T14:56:15;6.00;;;5.43;;
3231;SDS011;1628;48.884;9.210;2022-11-09T14:58:45;5.93;;;5.30;;
3231;SDS011;1628;48.884;9.210;2022-11-09T15:01:18;6.67;;;5.67;;
3231;SDS011;1628;48.884;9.210;2022-11-09T15:06:43;6.43;;;5.43;;
3231;SDS011;1628;48.884;9.210;2022-11-09T15:09:13;8.03;;;7.30;;
3231;SDS011;1628;48.884;9.210;2022-11-09T15:11:41;14.90;;;7.40;;
3231;SDS011;1628;48.884;9.210;2022-11-09T15:14:14;6.80;;;5.90;;
3231;SDS011;1628;48.884;9.210;2022-11-09T15:16:54;8.33;;;7.00;;
3231;SDS011;1628;48.884;9.210;2022-11-09T15:19:26;8.50;;;7.47;;
3231;SDS011;1628;48.884;9.210;2022-11-09T15:21:54;8.10;;;6.17;;
3231;SDS011;1628;48.884;9.210;2022-11-09T15:24:21;7.97;;;7.17;;
3231;SDS011;1628;48.884;9.210;2022-11-09T15:26:50;9.20;;;7.00;;
3231;SDS011;1628;48.884;9.210;2022-11-09T15:29:27;7.47;;;6.70;;
3231;SDS011;1628;48.884;9.210;2022-11-09T15:31:56;11.43;;;6.27;;
3231;SDS011;1628;48.884;9.210;2022-11-09T15:34:24;12.87;;;9.87;;
3231;SDS011;1628;48.884;9.210;2022-11-09T15:36:54;7.50;;;6.80;;
3231;SDS011;1628;48.884;9.210;2022-11-09T15:39:21;9.13;;;5.90;;
3231;SDS011;1628;48.884;9.210;2022-11-09T15:41:49;6.70;;;6.10;;
3231;SDS011;1628;48.884;9.210;2022-11-09T15:44:15;7.93;;;6.37;;
3231;SDS011;1628;48.884;9.210;2022-11-09T15:46:47;8.30;;;5.90;;
3231;SDS011;1628;48.884;9.210;2022-11-09T15:49:16;7.60;;;5.70;;
3231;SDS011;1628;48.884;9.210;2022-11-09T15:51:45;8.03;;;6.47;;